createdAt,value
2019-05-10T00:04:46.003Z,9.50
2019-05-10T00:09:46.997Z,9.70
2019-05-10T00:14:50.010Z,9.80
2019-05-10T00:19:51.207Z,9.70
2019-05-10T00:25:03.046Z,9.60
2019-05-10T00:29:55.493Z,9.60
2019-05-10T00:34:56.591Z,9.80
2019-05-10T00:39:57.692Z,9.70
2019-05-10T00:44:58.884Z,9.80
2019-05-10T00:49:59.992Z,9.90
2019-05-10T00:55:01.082Z,9.90
2019-05-10T01:00:04.704Z,10.00
2019-05-10T01:05:06.108Z,10.10
2019-05-10T01:10:07.807Z,10.00
2019-05-10T01:15:09.710Z,10.00
2019-05-10T01:20:11.197Z,9.90
2019-05-10T01:25:12.487Z,9.80
2019-05-10T01:30:14.087Z,9.70
2019-05-10T01:35:15.276Z,9.90
2019-05-10T01:40:16.479Z,9.80
2019-05-10T01:45:17.864Z,9.90
2019-05-10T01:50:18.961Z,9.90
2019-05-10T01:55:20.052Z,9.80
2019-05-10T02:00:21.548Z,9.90
2019-05-10T02:05:22.696Z,9.90
2019-05-10T02:10:24.015Z,9.80
2019-05-10T02:15:25.216Z,9.90
2019-05-10T02:20:26.307Z,9.80
2019-05-10T02:25:27.467Z,9.80
2019-05-10T02:30:28.599Z,9.80
2019-05-10T02:35:29.728Z,10.00
2019-05-10T02:40:31.142Z,9.90
2019-05-10T02:45:32.225Z,10.00
2019-05-10T02:50:33.321Z,10.00
2019-05-10T02:55:35.922Z,10.20
2019-05-10T03:00:39.621Z,10.00
2019-05-10T03:05:41.340Z,10.00
2019-05-10T03:10:46.242Z,9.90
2019-05-10T03:15:51.157Z,9.80
2019-05-10T03:20:56.048Z,9.80
2019-05-10T03:25:57.654Z,9.70
2019-05-10T03:30:58.754Z,9.70
2019-05-10T03:36:00.068Z,9.60
2019-05-10T03:41:01.265Z,9.60
2019-05-10T03:46:02.577Z,9.60
2019-05-10T03:51:03.675Z,9.70
2019-05-10T03:56:04.782Z,9.70
2019-05-10T04:01:05.872Z,9.80
2019-05-10T04:06:06.988Z,10.00
2019-05-10T04:11:08.094Z,10.10
2019-05-10T04:16:09.280Z,10.10
2019-05-10T04:21:10.371Z,10.10
2019-05-10T04:26:11.473Z,10.20
2019-05-10T04:31:12.563Z,10.30
2019-05-10T04:36:13.651Z,10.20
2019-05-10T04:41:14.760Z,10.30
2019-05-10T04:46:17.762Z,10.30
2019-05-10T04:51:18.848Z,10.30
2019-05-10T04:56:19.941Z,10.40
2019-05-10T05:01:21.033Z,10.50
2019-05-10T05:06:22.175Z,10.50
2019-05-10T05:11:23.297Z,10.50
2019-05-10T05:16:24.400Z,10.60
2019-05-10T05:21:25.492Z,10.70
2019-05-10T05:26:26.616Z,10.80
2019-05-10T05:31:27.992Z,11.00
2019-05-10T05:36:29.404Z,11.20
2019-05-10T05:41:31.941Z,11.60
2019-05-10T05:46:33.286Z,12.00
2019-05-10T05:51:34.390Z,12.40
2019-05-10T05:56:35.512Z,12.40
2019-05-10T06:01:36.697Z,12.40
2019-05-10T06:06:37.807Z,12.40
2019-05-10T06:11:38.935Z,12.30
2019-05-10T06:16:45.112Z,12.10
2019-05-10T06:21:43.011Z,12.60
2019-05-10T06:26:44.121Z,13.20
2019-05-10T06:31:45.211Z,13.30
2019-05-10T06:36:46.310Z,13.20
2019-05-10T06:41:49.909Z,13.10
2019-05-10T06:46:50.391Z,13.10
2019-05-10T06:51:51.499Z,13.20
2019-05-10T06:56:52.596Z,13.30
2019-05-10T07:01:53.695Z,13.30
2019-05-10T07:06:54.821Z,13.30
2019-05-10T07:11:55.914Z,13.50
2019-05-10T07:17:02.633Z,13.50
2019-05-10T07:22:00.100Z,13.50
2019-05-10T07:27:02.340Z,13.50
2019-05-10T07:32:04.133Z,13.80
2019-05-10T07:37:05.410Z,14.00
2019-05-10T07:42:08.897Z,14.40
2019-05-10T07:47:09.511Z,13.60
2019-05-10T07:52:10.615Z,14.30
2019-05-10T07:57:11.732Z,14.40
2019-05-10T08:02:14.742Z,14.50
2019-05-10T08:07:18.453Z,14.50
2019-05-10T08:12:19.526Z,14.60
2019-05-10T08:17:20.868Z,14.90
2019-05-10T08:22:22.914Z,15.30
2019-05-10T08:27:24.183Z,15.00
2019-05-10T08:32:29.810Z,14.50
2019-05-10T08:37:36.029Z,14.50
2019-05-10T08:42:43.683Z,14.70
2019-05-10T08:47:34.483Z,15.60
2019-05-10T08:52:35.799Z,15.80
2019-05-10T08:57:43.329Z,15.50
2019-05-10T09:02:42.362Z,15.90
2019-05-10T09:07:45.321Z,15.90
2019-05-10T09:12:51.155Z,15.40
2019-05-10T09:17:49.054Z,15.60
2019-05-10T09:22:52.627Z,16.10
2019-05-10T09:27:53.279Z,16.70
2019-05-10T09:32:54.518Z,17.80
2019-05-10T09:37:58.545Z,17.60
2019-05-10T09:42:59.481Z,17.40
2019-05-10T09:48:02.530Z,17.90
2019-05-10T09:53:06.716Z,18.20
2019-05-10T09:58:08.542Z,18.50
2019-05-10T10:03:12.764Z,19.10
2019-05-10T10:08:13.071Z,19.50
2019-05-10T10:13:15.748Z,18.40
2019-05-10T10:18:21.292Z,17.70
2019-05-10T10:23:24.561Z,17.00
2019-05-10T10:28:23.181Z,16.30
2019-05-10T10:33:28.125Z,16.30
2019-05-10T10:38:30.638Z,16.70
2019-05-10T10:43:30.276Z,16.60
2019-05-10T10:48:31.402Z,16.60
2019-05-10T10:53:32.495Z,16.90
2019-05-10T10:58:33.589Z,18.40
2019-05-10T11:03:34.686Z,20.50
2019-05-10T11:08:35.787Z,20.40
2019-05-10T11:13:43.884Z,20.50
2019-05-10T11:18:41.815Z,19.30
2019-05-10T11:23:42.908Z,18.10
2019-05-10T11:28:44.475Z,17.80
2019-05-10T11:33:47.173Z,18.60
2019-05-10T11:38:56.913Z,19.10
2019-05-10T11:43:51.718Z,20.40
2019-05-10T11:48:52.835Z,21.60
2019-05-10T11:58:57.048Z,21.30
2019-05-10T11:59:04.822Z,22.40
2019-05-10T12:03:58.144Z,19.70
2019-05-10T12:09:02.130Z,19.20
2019-05-10T12:14:02.701Z,18.50
2019-05-10T12:19:14.911Z,17.60
2019-05-10T12:24:26.210Z,17.30
2019-05-10T12:29:13.454Z,17.20
2019-05-10T12:34:14.590Z,16.90
2019-05-10T12:39:15.922Z,17.00
2019-05-10T12:44:17.018Z,17.40
2019-05-10T12:49:18.150Z,17.50
2019-05-10T12:54:23.748Z,17.80
2019-05-10T12:59:22.233Z,18.20
2019-05-10T13:04:32.366Z,18.00
2019-05-10T13:09:38.208Z,17.70
2019-05-10T13:14:29.445Z,17.40
2019-05-10T13:19:30.667Z,16.70
2019-05-10T13:24:31.785Z,16.80
2019-05-10T13:29:32.903Z,16.90
2019-05-10T13:34:33.999Z,17.30
2019-05-10T13:39:35.118Z,17.80
2019-05-10T13:44:37.049Z,18.10
2019-05-10T13:49:39.354Z,18.80
2019-05-10T13:54:40.458Z,21.20
2019-05-10T13:59:41.592Z,21.60
2019-05-10T14:04:42.733Z,21.80
2019-05-10T14:09:43.892Z,25.80
2019-05-10T14:14:45.091Z,27.70
2019-05-10T14:19:46.221Z,26.50
2019-05-10T14:24:53.354Z,27.10
2019-05-10T14:29:50.326Z,27.60
2019-05-10T14:34:51.419Z,23.90
2019-05-10T14:39:52.627Z,20.80
2019-05-10T14:44:53.743Z,21.50
2019-05-10T14:49:54.940Z,24.30
2019-05-10T14:54:56.935Z,25.30
2019-05-10T14:59:58.371Z,26.20
2019-05-10T15:05:01.532Z,27.00
2019-05-10T15:10:04.760Z,26.80
2019-05-10T15:15:06.295Z,27.60
2019-05-10T15:20:07.810Z,28.30
2019-05-10T15:25:09.415Z,28.40
2019-05-10T15:30:10.833Z,26.80
2019-05-10T15:35:11.948Z,24.20
2019-05-10T15:40:13.660Z,21.60
2019-05-10T15:45:19.218Z,19.90
2019-05-10T15:50:19.122Z,19.30
2019-05-10T15:59:23.855Z,18.90
2019-05-10T16:00:25.326Z,19.20
2019-05-10T16:05:42.359Z,19.70
2019-05-10T16:10:38.841Z,22.20
2019-05-10T16:15:33.324Z,24.70
2019-05-10T16:20:37.379Z,27.30
2019-05-10T16:25:45.397Z,27.30
2019-05-10T16:30:42.950Z,27.60
2019-05-10T16:35:48.797Z,26.90
2019-05-10T16:40:56.841Z,24.70
2019-05-10T16:45:50.103Z,22.10
2019-05-10T16:50:51.751Z,20.00
2019-05-10T16:55:52.829Z,18.80
2019-05-10T17:00:53.964Z,17.80
2019-05-10T17:05:58.738Z,17.10
2019-05-10T17:10:58.120Z,17.10
2019-05-10T17:15:59.386Z,17.00
2019-05-10T17:21:00.476Z,16.70
2019-05-10T17:26:01.705Z,16.30
2019-05-10T17:31:07.720Z,15.90
2019-05-10T17:36:08.746Z,15.60
2019-05-10T17:41:08.988Z,15.50
2019-05-10T17:46:12.934Z,15.50
2019-05-10T17:51:13.157Z,15.40
2019-05-10T17:56:14.438Z,15.40
2019-05-10T18:01:15.652Z,15.50
2019-05-10T18:06:24.178Z,15.30
2019-05-10T18:11:20.100Z,15.40
2019-05-10T18:16:21.353Z,15.40
2019-05-10T18:21:24.207Z,15.10
2019-05-10T18:26:25.573Z,14.90
2019-05-10T18:31:26.712Z,14.60
2019-05-10T18:36:50.621Z,14.30
2019-05-10T18:41:30.901Z,14.00
2019-05-10T18:46:32.109Z,13.60
2019-05-10T18:51:34.693Z,13.30
2019-05-10T18:56:35.969Z,13.00
2019-05-10T19:01:38.692Z,12.70
2019-05-10T19:06:44.019Z,12.40
2019-05-10T19:11:43.422Z,12.20
2019-05-10T19:16:44.775Z,12.00
2019-05-10T19:21:45.877Z,11.70
2019-05-10T19:26:47.033Z,11.40
2019-05-10T19:31:48.132Z,11.30
2019-05-10T19:36:49.358Z,11.20
2019-05-10T19:41:50.698Z,11.10
2019-05-10T19:46:51.885Z,11.10
2019-05-10T19:51:53.189Z,11.10
2019-05-10T19:56:55.456Z,11.00
2019-05-10T20:01:57.047Z,10.80
2019-05-10T20:06:58.351Z,10.60
2019-05-10T20:11:59.490Z,10.50
2019-05-10T20:17:00.748Z,10.50
2019-05-10T20:22:02.045Z,10.50
2019-05-10T20:27:03.549Z,10.30
2019-05-10T20:32:04.645Z,10.20
2019-05-10T20:37:05.766Z,10.20
2019-05-10T20:42:06.862Z,10.20
2019-05-10T20:47:08.006Z,10.20
2019-05-10T20:52:09.155Z,10.20
2019-05-10T20:57:10.500Z,10.10
2019-05-10T21:02:11.690Z,10.10
2019-05-10T21:07:12.805Z,10.10
2019-05-10T21:12:13.921Z,10.10
2019-05-10T21:17:15.077Z,10.10
2019-05-10T21:22:16.191Z,10.10
2019-05-10T21:27:17.375Z,10.10
2019-05-10T21:32:18.469Z,10.10
2019-05-10T21:37:19.676Z,10.20
2019-05-10T21:42:20.874Z,10.20
2019-05-10T21:47:21.994Z,10.10
2019-05-10T21:52:23.200Z,10.10
2019-05-10T21:57:24.300Z,10.10
2019-05-10T22:02:25.531Z,10.30
2019-05-10T22:07:26.629Z,10.50
2019-05-10T22:12:27.736Z,10.90
2019-05-10T22:17:28.837Z,11.40
2019-05-10T22:22:30.048Z,11.60
2019-05-10T22:27:32.005Z,11.70
2019-05-10T22:32:33.146Z,11.80
2019-05-10T22:37:34.270Z,11.90
2019-05-10T22:42:35.433Z,12.00
2019-05-10T22:47:36.592Z,11.90
2019-05-10T22:52:37.665Z,11.90
2019-05-10T22:57:38.767Z,11.90
2019-05-10T23:02:39.855Z,12.00
2019-05-10T23:07:40.999Z,12.00
2019-05-10T23:12:42.108Z,11.90
2019-05-10T23:17:43.243Z,11.80
2019-05-10T23:22:44.403Z,11.60
2019-05-10T23:27:45.610Z,11.50
2019-05-10T23:32:46.707Z,11.40
2019-05-10T23:37:47.822Z,11.40
2019-05-10T23:42:48.912Z,11.50
2019-05-10T23:47:50.074Z,11.60
2019-05-10T23:52:51.161Z,11.50
2019-05-10T23:57:52.356Z,11.40
